createdAt,value
2018-09-03T00:01:49.789Z,99.90
2018-09-03T00:04:20.229Z,99.90
2018-09-03T00:06:50.687Z,99.90
2018-09-03T00:09:21.421Z,99.90
2018-09-03T00:11:51.816Z,99.90
2018-09-03T00:14:23.514Z,99.90
2018-09-03T00:16:54.793Z,99.90
2018-09-03T00:19:25.537Z,99.90
2018-09-03T00:21:56.380Z,99.90
2018-09-03T00:24:28.368Z,99.90
2018-09-03T00:26:58.674Z,99.90
2018-09-03T00:29:28.999Z,99.90
2018-09-03T00:32:04.426Z,99.90
2018-09-03T00:34:40.175Z,99.90
2018-09-03T00:37:15.897Z,99.90
2018-09-03T00:39:52.804Z,99.90
2018-09-03T00:42:30.348Z,99.90
2018-09-03T00:46:06.823Z,99.90
2018-09-03T00:48:37.155Z,99.90
2018-09-03T00:51:08.634Z,99.90
2018-09-03T00:53:40.423Z,99.90
2018-09-03T00:56:10.776Z,99.90
2018-09-03T00:58:42.464Z,99.90
2018-09-03T01:01:13.341Z,99.90
2018-09-03T01:03:43.689Z,99.90
2018-09-03T01:06:14.175Z,99.90
2018-09-03T01:08:45.301Z,99.90
2018-09-03T01:11:15.645Z,99.90
2018-09-03T01:13:46.492Z,99.90
2018-09-03T01:16:21.591Z,99.90
2018-09-03T01:18:56.845Z,99.90
2018-09-03T01:21:30.929Z,99.90
2018-09-03T01:24:02.978Z,99.90
2018-09-03T01:26:34.403Z,99.90
2018-09-03T01:29:05.716Z,99.90
2018-09-03T01:31:36.077Z,99.90
2018-09-03T01:34:09.188Z,99.90
2018-09-03T01:36:41.547Z,99.90
2018-09-03T01:39:11.841Z,99.90
2018-09-03T01:41:43.184Z,99.90
2018-09-03T01:44:14.066Z,99.90
2018-09-03T01:46:45.834Z,99.90
2018-09-03T01:49:17.870Z,99.90
2018-09-03T01:51:49.533Z,99.90
2018-09-03T01:54:23.744Z,99.90
2018-09-03T01:56:54.158Z,99.90
2018-09-03T01:59:25.395Z,99.90
2018-09-03T02:01:56.625Z,99.90
2018-09-03T02:04:26.931Z,99.90
2018-09-03T02:06:58.126Z,99.90
2018-09-03T02:09:28.726Z,99.90
2018-09-03T02:11:59.589Z,99.90
2018-09-03T02:14:30.287Z,99.90
2018-09-03T02:17:00.638Z,99.90
2018-09-03T02:19:31.957Z,99.90
2018-09-03T02:22:02.392Z,99.90
2018-09-03T02:24:33.863Z,99.90
2018-09-03T02:27:07.209Z,99.90
2018-09-03T02:29:39.233Z,99.90
2018-09-03T02:32:09.574Z,99.90
2018-09-03T02:34:41.601Z,99.90
2018-09-03T02:37:13.568Z,99.90
2018-09-03T02:39:44.062Z,99.90
2018-09-03T02:42:15.266Z,99.90
2018-09-03T02:44:45.802Z,99.90
2018-09-03T02:47:17.166Z,99.90
2018-09-03T02:49:48.905Z,99.90
2018-09-03T02:52:21.575Z,99.90
2018-09-03T02:54:51.969Z,99.90
2018-09-03T02:57:23.846Z,99.90
2018-09-03T02:59:54.863Z,99.90
2018-09-03T03:02:25.487Z,99.90
2018-09-03T03:04:55.863Z,99.90
2018-09-03T03:07:26.201Z,99.90
2018-09-03T03:09:56.509Z,99.90
2018-09-03T03:12:26.892Z,99.90
2018-09-03T03:14:58.288Z,99.90
2018-09-03T03:17:29.103Z,99.90
2018-09-03T03:20:00.186Z,99.90
2018-09-03T03:22:35.705Z,99.90
2018-09-03T03:25:06.383Z,99.90
2018-09-03T03:27:36.862Z,99.90
2018-09-03T03:30:09.195Z,99.90
2018-09-03T03:32:40.377Z,99.90
2018-09-03T03:35:12.359Z,99.90
2018-09-03T03:37:49.662Z,99.90
2018-09-03T03:40:21.614Z,99.90
2018-09-03T03:42:52.834Z,99.90
2018-09-03T03:45:26.073Z,99.90
2018-09-03T03:47:57.093Z,99.90
2018-09-03T03:50:28.653Z,99.90
2018-09-03T03:52:59.837Z,99.90
2018-09-03T03:55:30.415Z,99.90
2018-09-03T03:58:00.942Z,99.90
2018-09-03T04:00:32.119Z,99.90
2018-09-03T04:03:04.561Z,99.90
2018-09-03T04:05:34.876Z,99.90
2018-09-03T04:08:05.984Z,99.90
2018-09-03T04:10:39.505Z,99.90
2018-09-03T04:13:09.846Z,99.90
2018-09-03T04:15:41.543Z,99.90
2018-09-03T04:18:12.230Z,99.90
2018-09-03T04:20:43.924Z,99.90
2018-09-03T04:23:14.477Z,99.90
2018-09-03T04:25:45.306Z,99.90
2018-09-03T04:28:17.353Z,99.90
2018-09-03T04:30:48.853Z,99.90
2018-09-03T04:33:19.761Z,99.90
2018-09-03T04:35:52.062Z,99.90
2018-09-03T04:38:22.470Z,99.90
2018-09-03T04:40:53.568Z,99.90
2018-09-03T04:43:26.459Z,99.90
2018-09-03T04:45:56.829Z,99.90
2018-09-03T04:48:27.483Z,99.90
2018-09-03T04:50:57.862Z,99.90
2018-09-03T04:53:28.447Z,99.90
2018-09-03T04:55:58.886Z,99.90
2018-09-03T04:58:30.958Z,99.90
2018-09-03T05:01:01.868Z,99.90
2018-09-03T05:03:32.328Z,99.90
2018-09-03T05:06:06.156Z,99.90
2018-09-03T05:08:36.836Z,99.90
2018-09-03T05:11:07.427Z,99.90
2018-09-03T05:13:39.469Z,99.90
2018-09-03T05:16:10.141Z,99.90
2018-09-03T05:18:40.805Z,99.90
2018-09-03T05:21:12.127Z,99.90
2018-09-03T05:23:44.423Z,99.60
2018-09-03T05:26:15.719Z,99.60
2018-09-03T05:28:48.431Z,99.20
2018-09-03T05:31:19.806Z,98.70
2018-09-03T05:33:50.907Z,98.50
2018-09-03T05:36:21.191Z,98.50
2018-09-03T05:38:51.541Z,98.60
2018-09-03T05:41:24.426Z,98.50
2018-09-03T05:43:55.510Z,98.00
2018-09-03T05:46:27.538Z,98.10
2018-09-03T05:49:04.867Z,97.90
2018-09-03T05:51:39.489Z,97.50
2018-09-03T05:54:10.451Z,97.30
2018-09-03T05:56:42.345Z,97.00
2018-09-03T05:59:13.557Z,96.60
2018-09-03T06:01:45.091Z,96.50
2018-09-03T06:04:17.287Z,96.50
2018-09-03T06:06:54.085Z,96.50
2018-09-03T06:09:25.919Z,96.50
2018-09-03T06:11:57.601Z,96.70
2018-09-03T06:14:29.975Z,96.70
2018-09-03T06:17:00.580Z,96.30
2018-09-03T06:19:32.313Z,95.90
2018-09-03T06:22:03.004Z,95.80
2018-09-03T06:24:35.918Z,95.90
2018-09-03T06:27:06.977Z,95.90
2018-09-03T06:29:38.255Z,95.80
2018-09-03T06:32:08.877Z,95.50
2018-09-03T06:34:40.458Z,95.40
2018-09-03T06:37:12.641Z,95.50
2018-09-03T06:39:45.809Z,95.20
2018-09-03T06:42:17.105Z,94.90
2018-09-03T06:44:49.085Z,94.60
2018-09-03T06:47:19.972Z,94.10
2018-09-03T06:49:56.824Z,93.60
2018-09-03T06:52:29.432Z,93.80
2018-09-03T06:54:59.895Z,93.30
2018-09-03T06:57:30.425Z,93.40
2018-09-03T07:00:01.811Z,92.80
2018-09-03T07:02:34.541Z,92.80
2018-09-03T07:05:04.988Z,92.30
2018-09-03T07:07:36.740Z,91.50
2018-09-03T07:10:09.357Z,91.40
2018-09-03T07:12:43.117Z,91.00
2018-09-03T07:15:17.921Z,90.80
2018-09-03T07:17:49.858Z,90.80
2018-09-03T07:20:20.353Z,90.50
2018-09-03T07:22:54.972Z,91.10
2018-09-03T07:25:27.185Z,90.30
2018-09-03T07:27:58.514Z,88.40
2018-09-03T07:30:30.021Z,88.10
2018-09-03T07:33:00.431Z,88.70
2018-09-03T07:35:30.862Z,88.60
2018-09-03T07:38:01.298Z,87.90
2018-09-03T07:40:31.873Z,87.70
2018-09-03T07:43:04.765Z,88.30
2018-09-03T07:45:40.221Z,89.00
2018-09-03T07:48:13.425Z,87.30
2018-09-03T07:50:45.261Z,87.30
2018-09-03T07:53:40.011Z,87.40
2018-09-03T07:56:10.510Z,87.30
2018-09-03T07:58:40.885Z,86.70
2018-09-03T08:01:16.237Z,87.70
2018-09-03T08:03:46.534Z,86.90
2018-09-03T08:06:17.574Z,87.30
2018-09-03T08:08:49.565Z,86.70
2018-09-03T08:11:20.085Z,86.60
2018-09-03T08:13:50.397Z,86.30
2018-09-03T08:16:20.920Z,87.60
2018-09-03T08:18:55.234Z,84.30
2018-09-03T08:21:25.674Z,83.10
2018-09-03T08:23:56.529Z,83.30
2018-09-03T08:26:27.216Z,83.60
2018-09-03T08:29:00.333Z,83.30
2018-09-03T08:31:31.530Z,83.60
2018-09-03T08:34:02.573Z,83.40
2018-09-03T08:36:34.015Z,82.50
2018-09-03T08:39:05.907Z,82.10
2018-09-03T08:41:36.805Z,82.60
2018-09-03T08:44:08.775Z,83.20
2018-09-03T08:46:39.106Z,83.70
2018-09-03T08:49:09.488Z,82.00
2018-09-03T08:51:39.804Z,82.40
2018-09-03T08:54:10.222Z,82.90
2018-09-03T08:56:40.952Z,83.20
2018-09-03T08:59:11.980Z,82.10
2018-09-03T09:01:42.369Z,83.00
2018-09-03T09:04:12.928Z,83.30
2018-09-03T09:06:43.306Z,82.70
2018-09-03T09:09:13.828Z,84.20
2018-09-03T09:11:44.344Z,84.20
2018-09-03T09:14:14.695Z,81.60
2018-09-03T09:16:45.154Z,80.10
2018-09-03T09:19:15.533Z,77.60
2018-09-03T09:21:45.984Z,77.00
2018-09-03T09:24:17.152Z,78.20
2018-09-03T09:26:47.445Z,79.60
2018-09-03T09:29:17.789Z,79.90
2018-09-03T09:31:48.730Z,78.50
2018-09-03T09:34:19.096Z,77.50
2018-09-03T09:36:49.428Z,78.00
2018-09-03T09:39:19.795Z,76.90
2018-09-03T09:41:50.176Z,74.80
2018-09-03T09:44:20.610Z,74.70
2018-09-03T09:46:51.029Z,76.20
2018-09-03T09:49:21.563Z,75.20
2018-09-03T09:51:52.031Z,78.30
2018-09-03T09:54:22.436Z,76.60
2018-09-03T09:56:53.921Z,76.00
2018-09-03T09:59:24.334Z,75.50
2018-09-03T10:01:54.701Z,74.30
2018-09-03T10:04:25.104Z,74.00
2018-09-03T10:06:55.447Z,70.50
2018-09-03T10:09:25.727Z,71.90
2018-09-03T10:11:56.121Z,71.80
2018-09-03T10:14:26.457Z,71.40
2018-09-03T10:16:57.468Z,72.20
2018-09-03T10:19:28.381Z,70.20
2018-09-03T10:21:58.833Z,71.70
2018-09-03T10:24:29.177Z,70.60
2018-09-03T10:26:59.502Z,72.20
2018-09-03T10:29:29.930Z,72.20
2018-09-03T10:32:00.355Z,72.40
2018-09-03T10:34:30.744Z,72.00
2018-09-03T10:37:01.202Z,71.50
2018-09-03T10:39:59.158Z,72.80
2018-09-03T10:42:29.576Z,72.10
2018-09-03T10:45:00.044Z,71.30
2018-09-03T10:47:30.442Z,71.40
2018-09-03T10:50:00.694Z,72.30
2018-09-03T10:52:31.031Z,72.80
2018-09-03T10:55:01.396Z,72.60
2018-09-03T10:57:31.740Z,73.00
2018-09-03T11:00:11.058Z,70.90
2018-09-03T11:02:41.407Z,70.70
2018-09-03T11:05:11.876Z,71.70
2018-09-03T11:07:42.128Z,69.30
2018-09-03T11:10:12.445Z,68.40
2018-09-03T11:12:43.794Z,64.10
2018-09-03T11:15:14.142Z,61.10
2018-09-03T11:17:45.127Z,59.90
2018-09-03T11:20:20.557Z,59.50
2018-09-03T11:22:51.007Z,61.10
2018-09-03T11:25:21.902Z,61.20
2018-09-03T11:27:54.028Z,59.20
2018-09-03T11:30:25.128Z,59.90
2018-09-03T11:32:58.589Z,59.50
2018-09-03T11:35:30.677Z,59.40
2018-09-03T11:38:01.948Z,57.00
2018-09-03T11:40:33.160Z,56.70
2018-09-03T11:43:03.568Z,56.80
2018-09-03T11:45:33.978Z,58.20
2018-09-03T11:48:05.008Z,58.70
2018-09-03T11:50:35.361Z,59.20
2018-09-03T11:53:06.457Z,59.20
2018-09-03T11:55:36.776Z,60.20
2018-09-03T11:58:07.265Z,61.70
2018-09-03T12:00:37.711Z,62.10
2018-09-03T12:03:09.510Z,62.80
2018-09-03T12:05:39.861Z,62.40
2018-09-03T12:08:10.796Z,59.50
2018-09-03T12:10:44.550Z,55.40
2018-09-03T12:13:15.299Z,54.40
2018-09-03T12:15:55.112Z,54.20
2018-09-03T12:18:25.624Z,50.80
2018-09-03T12:20:57.980Z,49.40
2018-09-03T12:23:28.305Z,48.60
2018-09-03T12:25:58.650Z,47.20
2018-09-03T12:28:29.079Z,47.40
2018-09-03T12:30:59.807Z,46.60
2018-09-03T12:33:30.732Z,45.00
2018-09-03T12:36:01.085Z,45.20
2018-09-03T12:38:32.545Z,43.40
2018-09-03T12:41:03.795Z,43.50
2018-09-03T12:43:35.477Z,43.20
2018-09-03T12:46:07.106Z,41.80
2018-09-03T12:48:37.460Z,42.30
2018-09-03T12:51:08.015Z,42.90
2018-09-03T12:53:38.352Z,43.90
2018-09-03T12:56:08.845Z,45.80
2018-09-03T12:58:39.302Z,46.50
2018-09-03T13:01:09.597Z,47.20
2018-09-03T13:03:39.917Z,48.40
2018-09-03T13:06:10.402Z,49.30
2018-09-03T13:08:40.781Z,47.90
2018-09-03T13:11:11.490Z,47.80
2018-09-03T13:13:41.815Z,48.40
2018-09-03T13:16:12.372Z,48.20
2018-09-03T13:18:42.800Z,49.60
2018-09-03T13:21:13.177Z,50.30
2018-09-03T13:23:44.789Z,49.80
2018-09-03T13:26:17.485Z,50.10
2018-09-03T13:28:49.556Z,50.60
2018-09-03T13:31:21.596Z,51.00
2018-09-03T13:33:55.911Z,51.10
2018-09-03T13:36:26.255Z,51.70
2018-09-03T13:38:59.019Z,51.80
2018-09-03T13:41:29.472Z,51.80
2018-09-03T13:44:00.900Z,51.40
2018-09-03T13:46:31.417Z,50.60
2018-09-03T13:49:01.810Z,52.00
2018-09-03T13:51:32.262Z,51.20
2018-09-03T13:54:02.989Z,50.80
2018-09-03T13:56:33.494Z,51.60
2018-09-03T13:59:04.164Z,50.90
2018-09-03T14:01:34.522Z,51.30
2018-09-03T14:04:06.082Z,52.60
2018-09-03T14:06:37.217Z,52.80
2018-09-03T14:09:09.458Z,53.60
2018-09-03T14:11:41.898Z,53.00
2018-09-03T14:14:12.684Z,54.00
2018-09-03T14:16:43.245Z,54.40
2018-09-03T14:19:13.851Z,54.70
2018-09-03T14:21:44.249Z,55.80
2018-09-03T14:24:14.863Z,56.30
2018-09-03T14:26:45.166Z,56.90
2018-09-03T14:29:15.907Z,57.20
2018-09-03T14:31:53.784Z,58.10
2018-09-03T14:34:24.537Z,58.80
2018-09-03T14:36:54.972Z,58.80
2018-09-03T14:39:25.601Z,57.80
2018-09-03T14:41:55.892Z,58.30
2018-09-03T14:44:26.654Z,58.20
2018-09-03T14:46:57.141Z,57.80
2018-09-03T14:49:27.815Z,59.40
2018-09-03T14:51:58.153Z,58.70
2018-09-03T14:54:28.762Z,58.20
2018-09-03T14:56:59.953Z,58.80
2018-09-03T14:59:30.521Z,59.70
2018-09-03T15:02:00.859Z,58.80
2018-09-03T15:04:31.559Z,58.80
2018-09-03T15:07:01.892Z,59.00
2018-09-03T15:09:32.435Z,59.50
2018-09-03T15:12:02.761Z,59.80
2018-09-03T15:14:33.452Z,60.80
2018-09-03T15:17:04.739Z,61.80
2018-09-03T15:19:36.121Z,63.10
2018-09-03T15:22:06.461Z,64.80
2018-09-03T15:24:36.805Z,65.60
2018-09-03T15:27:07.460Z,66.30
2018-09-03T15:29:37.801Z,66.00
2018-09-03T15:32:08.736Z,66.10
2018-09-03T15:34:39.728Z,66.90
2018-09-03T15:37:10.882Z,66.80
2018-09-03T15:39:41.257Z,67.50
2018-09-03T15:42:12.001Z,68.00
2018-09-03T15:44:44.597Z,69.00
2018-09-03T15:55:19.800Z,69.70
2018-09-03T15:57:51.659Z,66.20
2018-09-03T16:00:30.210Z,67.30
2018-09-03T16:03:00.571Z,68.40
2018-09-03T16:05:32.125Z,71.10
2018-09-03T16:08:02.992Z,71.30
2018-09-03T16:10:36.381Z,70.70
2018-09-03T16:13:10.877Z,72.40
2018-09-03T16:15:41.233Z,74.80
2018-09-03T16:18:18.478Z,78.10
2018-09-03T16:20:50.998Z,79.80
2018-09-03T16:23:30.822Z,81.30
2018-09-03T16:26:03.526Z,82.40
2018-09-03T16:28:34.454Z,82.40
2018-09-03T16:31:05.183Z,83.20
2018-09-03T16:33:36.170Z,85.60
2018-09-03T16:36:06.944Z,87.20
2018-09-03T16:38:39.615Z,88.40
2018-09-03T16:41:10.773Z,90.10
2018-09-03T16:43:41.137Z,90.70
2018-09-03T16:46:11.787Z,91.40
2018-09-03T16:48:42.419Z,92.20
2018-09-03T16:51:12.987Z,92.40
2018-09-03T16:53:52.221Z,92.50
2018-09-03T16:56:27.898Z,92.90
2018-09-03T16:58:59.224Z,92.40
2018-09-03T17:01:31.668Z,92.80
2018-09-03T17:04:01.956Z,93.10
2018-09-03T17:06:32.345Z,93.50
2018-09-03T17:09:02.965Z,93.90
2018-09-03T17:11:33.333Z,94.30
2018-09-03T17:14:04.047Z,94.10
2018-09-03T17:16:35.720Z,94.60
2018-09-03T17:19:07.461Z,94.80
2018-09-03T17:21:51.178Z,94.40
2018-09-03T17:24:28.391Z,94.60
2018-09-03T17:27:01.358Z,94.90
2018-09-03T17:29:39.573Z,95.10
2018-09-03T17:32:12.185Z,95.50
2018-09-03T17:34:43.593Z,95.70
2018-09-03T17:37:17.699Z,95.70
2018-09-03T17:39:49.888Z,95.90
2018-09-03T17:42:22.062Z,96.30
2018-09-03T17:44:58.940Z,96.80
2018-09-03T17:47:29.998Z,96.70
2018-09-03T17:50:02.176Z,97.00
2018-09-03T17:52:34.803Z,97.10
2018-09-03T17:55:10.030Z,97.10
2018-09-03T17:57:42.543Z,97.30
2018-09-03T18:00:14.129Z,97.20
2018-09-03T18:02:44.617Z,97.40
2018-09-03T18:05:16.836Z,97.20
2018-09-03T18:07:49.813Z,96.80
2018-09-03T18:10:26.669Z,96.50
2018-09-03T18:13:06.819Z,96.20
2018-09-03T18:15:39.719Z,96.50
2018-09-03T18:22:25.199Z,96.00
2018-09-03T18:25:25.998Z,95.80
2018-09-03T19:13:05.485Z,97.70
2018-09-03T19:29:54.138Z,97.60
2018-09-03T19:32:34.575Z,97.80
2018-09-03T19:35:13.959Z,97.90
2018-09-03T19:40:41.157Z,98.00
2018-09-03T19:43:18.685Z,98.10
2018-09-03T19:45:56.772Z,98.30
2018-09-03T19:49:20.372Z,98.50
2018-09-03T19:52:01.264Z,98.20
2018-09-03T19:54:42.967Z,98.10
2018-09-03T19:57:48.441Z,98.00
2018-09-03T20:00:29.207Z,97.90
2018-09-03T20:03:02.629Z,97.30
2018-09-03T20:05:38.417Z,97.00
2018-09-03T20:08:10.405Z,97.00
2018-09-03T20:11:17.926Z,96.60
2018-09-03T20:13:54.569Z,96.60
2018-09-03T20:16:31.868Z,96.30
2018-09-03T20:25:25.629Z,95.80
2018-09-03T20:28:04.729Z,95.80
2018-09-03T20:30:44.917Z,96.00
2018-09-03T20:33:17.170Z,95.90
2018-09-03T20:35:51.009Z,96.30
2018-09-03T20:42:41.376Z,96.80
2018-09-03T20:45:15.982Z,96.40
2018-09-03T20:48:01.089Z,96.30
2018-09-03T20:50:50.049Z,96.70
2018-09-03T20:53:31.189Z,96.80
2018-09-03T20:56:04.942Z,97.30
2018-09-03T20:58:37.194Z,97.50
2018-09-03T21:05:35.661Z,97.80
2018-09-03T21:08:13.966Z,97.80
2018-09-03T21:10:49.083Z,97.80
2018-09-03T21:13:23.133Z,97.60
2018-09-03T21:15:59.465Z,97.50
2018-09-03T21:18:33.996Z,97.40
2018-09-03T21:21:09.735Z,97.10
2018-09-03T21:23:43.150Z,97.20
2018-09-03T21:26:15.949Z,97.30
2018-09-03T21:28:50.457Z,97.40
2018-09-03T21:31:22.910Z,97.50
2018-09-03T21:33:54.589Z,97.90
2018-09-03T21:36:30.136Z,98.00
2018-09-03T21:39:03.586Z,98.20
2018-09-03T21:41:37.118Z,98.20
2018-09-03T21:44:13.414Z,98.40
2018-09-03T21:46:46.394Z,98.50
2018-09-03T21:49:57.620Z,98.50
2018-09-03T21:52:51.604Z,98.70
2018-09-03T21:55:23.881Z,98.30
2018-09-03T21:57:55.897Z,98.30
2018-09-03T22:00:28.853Z,98.60
2018-09-03T22:03:02.905Z,98.30
2018-09-03T22:05:44.794Z,98.40
2018-09-03T22:08:17.652Z,98.50
2018-09-03T22:10:49.634Z,98.70
2018-09-03T22:13:20.981Z,98.80
2018-09-03T22:15:55.475Z,98.60
2018-09-03T22:18:27.477Z,98.60
2018-09-03T22:21:01.693Z,98.50
2018-09-03T22:23:38.942Z,98.30
2018-09-03T22:26:12.408Z,98.40
2018-09-03T22:28:46.073Z,98.40
2018-09-03T22:31:18.545Z,99.20
2018-09-03T22:33:50.420Z,98.90
2018-09-03T22:36:27.802Z,98.80
2018-09-03T22:39:01.666Z,98.80
2018-09-03T22:41:35.378Z,98.80
2018-09-03T22:44:13.626Z,98.70
2018-09-03T22:46:44.886Z,98.80
2018-09-03T22:49:20.923Z,98.70
2018-09-03T22:51:55.099Z,98.80
2018-09-03T22:54:28.006Z,98.90
2018-09-03T22:57:00.361Z,99.10
2018-09-03T22:59:32.157Z,98.90
2018-09-03T23:02:05.185Z,98.50
2018-09-03T23:04:35.857Z,98.40
2018-09-03T23:07:09.241Z,98.50
2018-09-03T23:09:42.546Z,98.80
2018-09-03T23:12:15.537Z,98.90
2018-09-03T23:14:53.029Z,99.00
2018-09-03T23:17:25.025Z,99.10
2018-09-03T23:19:58.841Z,99.00
2018-09-03T23:22:31.089Z,99.00
2018-09-03T23:25:03.663Z,98.80
2018-09-03T23:27:38.257Z,98.80
2018-09-03T23:30:10.729Z,98.70
2018-09-03T23:32:43.539Z,98.40
2018-09-03T23:35:16.452Z,98.50
2018-09-03T23:37:53.320Z,98.50
2018-09-03T23:40:29.257Z,98.60
2018-09-03T23:43:02.190Z,98.60
2018-09-03T23:45:34.170Z,98.50
2018-09-03T23:48:05.048Z,98.30
2018-09-03T23:50:37.244Z,98.30
2018-09-03T23:53:09.837Z,98.30
2018-09-03T23:55:42.735Z,98.50
2018-09-03T23:58:16.199Z,98.50
